Time;durP1;ratioP1;P1;durP2;ratioP2;P2;SDS_P1;SDS_P2;PMS_P1;PMS_P2;Temp;Humidity;BMP_temperature;BMP_pressure;BME280_temperature;BME280_humidity;BME280_pressure;Samples;Min_cycle;Max_cycle;Signal;HPM_P1;HPM_P2
2022/11/12 00:02:15;;;;;;;13.35;2.47;;;;;;;-142.37;100.00;59669.53;5033808;28;20470;-65
2022/11/12 00:04:41;;;;;;;5.88;1.48;;;;;;;-142.37;100.00;59669.53;5033836;28;20029;-65
2022/11/12 00:07:06;;;;;;;9.50;2.10;;;;;;;-142.37;100.00;59669.53;5033580;28;20025;-64
2022/11/12 00:09:32;;;;;;;6.60;1.92;;;;;;;-142.37;100.00;59669.53;5033476;28;20111;-63
2022/11/12 00:11:57;;;;;;;9.15;1.95;;;;;;;-142.37;100.00;59669.53;5033656;28;20030;-65
2022/11/12 00:14:23;;;;;;;10.27;2.53;;;;;;;-142.37;100.00;59669.53;5032388;28;20107;-64
2022/11/12 00:16:48;;;;;;;9.45;1.88;;;;;;;-142.37;100.00;59669.53;5033411;28;20470;-65
2022/11/12 00:19:14;;;;;;;9.88;2.13;;;;;;;-142.37;100.00;59669.53;5033535;28;20036;-65
2022/11/12 00:21:40;;;;;;;8.57;1.23;;;;;;;-142.37;100.00;59669.53;5032351;28;20036;-65
2022/11/12 00:24:05;;;;;;;9.48;2.08;;;;;;;-142.37;100.00;59669.53;5033726;28;20060;-63
2022/11/12 00:26:31;;;;;;;6.05;1.23;;;;;;;-142.37;100.00;59669.53;5033442;28;20036;-64
2022/11/12 00:28:56;;;;;;;7.63;1.02;;;;;;;-142.37;100.00;59669.53;5033423;28;20038;-66
2022/11/12 00:31:22;;;;;;;7.68;1.13;;;;;;;-142.37;100.00;59669.53;5031902;28;20039;-64
2022/11/12 00:33:47;;;;;;;6.45;2.00;;;;;;;-142.37;100.00;59669.53;5033311;28;20029;-64
2022/11/12 00:36:13;;;;;;;5.75;1.17;;;;;;;-142.37;100.00;59669.53;5032089;28;20394;-63
2022/11/12 00:38:39;;;;;;;5.55;1.58;;;;;;;-142.37;100.00;59669.53;5033463;28;20100;-62
2022/11/12 00:41:04;;;;;;;7.50;2.65;;;;;;;-142.37;100.00;59669.53;5033100;28;20118;-64
2022/11/12 00:43:30;;;;;;;8.43;2.13;;;;;;;-142.37;100.00;59669.53;5065209;28;20033;-64
2022/11/12 00:45:55;;;;;;;7.22;1.48;;;;;;;-142.37;100.00;59669.53;5031774;28;20040;-64
2022/11/12 00:48:21;;;;;;;3.35;1.13;;;;;;;-142.37;100.00;59669.53;5032964;28;20037;-67
2022/11/12 00:50:46;;;;;;;8.65;2.08;;;;;;;-142.37;100.00;59669.53;5031837;28;20025;-63
2022/11/12 00:53:12;;;;;;;7.00;1.23;;;;;;;-142.37;100.00;59669.53;5031936;28;20034;-65
2022/11/12 00:55:37;;;;;;;9.15;1.63;;;;;;;-142.37;100.00;59669.53;5031681;28;20037;-64
2022/11/12 00:58:03;;;;;;;10.07;2.22;;;;;;;-142.37;100.00;59669.53;5033033;28;20030;-64
2022/11/12 01:00:29;;;;;;;8.70;1.63;;;;;;;-142.37;100.00;59669.53;5032745;28;20033;-65
2022/11/12 01:02:54;;;;;;;6.60;2.08;;;;;;;-142.37;100.00;59669.53;5033007;28;20034;-63
2022/11/12 01:05:20;;;;;;;10.02;1.80;;;;;;;-142.37;100.00;59669.53;5032458;28;20061;-64
2022/11/12 01:07:46;;;;;;;9.70;1.75;;;;;;;-142.37;100.00;59669.53;5030968;28;20544;-64
2022/11/12 01:10:13;;;;;;;9.30;1.90;;;;;;;-142.37;100.00;59669.53;5033095;28;20037;-65
2022/11/12 01:12:39;;;;;;;3.35;1.08;;;;;;;-142.37;100.00;59669.53;5031369;28;20083;-63
2022/11/12 01:15:06;;;;;;;6.70;1.45;;;;;;;-142.37;100.00;59669.53;5032331;28;20029;-65
2022/11/12 01:17:32;;;;;;;6.38;1.73;;;;;;;-142.37;100.00;59669.53;5031129;28;20492;-65
2022/11/12 01:19:58;;;;;;;8.70;1.48;;;;;;;-142.37;100.00;59669.53;5032656;28;20061;-65
2022/11/12 01:22:24;;;;;;;11.27;2.80;;;;;;;-142.37;100.00;59669.53;5031145;28;20033;-64
2022/11/12 01:24:49;;;;;;;6.70;1.50;;;;;;;-142.37;100.00;59669.53;5032378;28;20052;-66
2022/11/12 01:27:15;;;;;;;4.32;1.10;;;;;;;-142.37;100.00;59669.53;5032051;28;20312;-65
2022/11/12 01:29:40;;;;;;;5.63;1.17;;;;;;;-142.37;100.00;59669.53;5031008;28;20040;-64
2022/11/12 01:32:06;;;;;;;7.32;2.67;;;;;;;-142.37;100.00;59669.53;5032380;28;20119;-63
2022/11/12 01:34:32;;;;;;;6.95;1.75;;;;;;;-142.37;100.00;59669.53;5031063;28;20033;-65
2022/11/12 01:36:58;;;;;;;12.18;2.05;;;;;;;-142.37;100.00;59669.53;5030829;28;20049;-64
2022/11/12 01:39:23;;;;;;;4.38;1.17;;;;;;;-142.37;100.00;59669.53;5032224;28;20109;-64
2022/11/12 01:41:49;;;;;;;6.55;1.33;;;;;;;-142.37;100.00;59669.53;5031914;28;20470;-65
2022/11/12 01:44:25;;;;;;;6.80;1.90;;;;;;;-142.37;100.00;59669.53;5030942;28;20033;-65
2022/11/12 01:47:16;;;;;;;7.30;1.15;;;;;;;-142.37;100.00;59669.53;5032493;28;20038;-65
2022/11/12 01:49:57;;;;;;;6.28;1.63;;;;;;;-142.37;100.00;59669.53;5032480;28;20112;-66
2022/11/12 01:52:39;;;;;;;7.47;1.38;;;;;;;-142.37;100.00;59669.53;5032192;28;20034;-63
2022/11/12 01:55:10;;;;;;;4.97;1.42;;;;;;;-142.37;100.00;59669.53;5031988;28;20033;-65
2022/11/12 01:57:59;;;;;;;8.23;1.33;;;;;;;-142.37;100.00;59669.53;5032093;28;20516;-63
2022/11/12 02:00:24;;;;;;;7.88;1.70;;;;;;;-142.37;100.00;59669.53;5032230;28;20544;-65
2022/11/12 02:03:02;;;;;;;9.38;1.70;;;;;;;-142.37;100.00;59669.53;5032034;28;20018;-66
2022/11/12 02:05:29;;;;;;;11.93;3.10;;;;;;;-142.37;100.00;59669.53;5030823;28;20030;-66
2022/11/12 02:07:56;;;;;;;13.05;1.95;;;;;;;-142.37;100.00;59669.53;5032069;28;20108;-64
2022/11/12 02:10:22;;;;;;;6.50;1.38;;;;;;;-142.37;100.00;59669.53;5032070;28;20033;-64
2022/11/12 02:15:37;;;;;;;9.82;1.90;;;;;;;-142.37;100.00;59669.53;5031591;28;20501;-64
2022/11/12 02:18:04;;;;;;;8.90;1.95;;;;;;;-142.37;100.00;59669.53;5030627;28;20033;-63
2022/11/12 02:20:34;;;;;;;9.20;2.88;;;;;;;-142.37;100.00;59669.53;5032970;28;20079;-64
2022/11/12 02:22:59;;;;;;;13.30;2.92;;;;;;;-142.37;100.00;59669.53;5035236;28;20489;-64
2022/11/12 02:25:27;;;;;;;8.23;2.08;;;;;;;-142.37;100.00;59669.53;5035864;28;20029;-66
2022/11/12 02:27:54;;;;;;;8.27;1.90;;;;;;;-142.37;100.00;59669.53;5035771;28;20029;-64
2022/11/12 02:30:46;;;;;;;10.07;2.90;;;;;;;-142.37;100.00;59669.53;5035813;28;20033;-66
2022/11/12 02:33:11;;;;;;;6.10;1.88;;;;;;;-142.37;100.00;59669.53;5035589;28;20039;-65
2022/11/12 02:35:37;;;;;;;8.93;2.47;;;;;;;-142.37;100.00;59669.53;5035613;28;20033;-64
2022/11/12 02:38:06;;;;;;;9.02;2.67;;;;;;;-142.37;100.00;59669.53;5035694;28;20474;-65
2022/11/12 02:40:32;;;;;;;6.57;1.92;;;;;;;-142.37;100.00;59669.53;5035265;28;20034;-63
2022/11/12 02:42:58;;;;;;;7.07;1.70;;;;;;;-142.37;100.00;59669.53;5035165;28;20030;-66
2022/11/12 02:45:24;;;;;;;11.80;2.33;;;;;;;-142.37;100.00;59669.53;5035486;28;20076;-65
2022/11/12 02:47:50;;;;;;;12.27;2.47;;;;;;;-142.37;100.00;59669.53;5035812;28;20389;-66
2022/11/12 02:50:16;;;;;;;9.45;2.30;;;;;;;-142.37;100.00;59669.53;5035604;28;20067;-64
2022/11/12 02:52:42;;;;;;;9.50;2.60;;;;;;;-142.37;100.00;59669.53;5034125;28;20030;-64
2022/11/12 02:55:10;;;;;;;10.30;2.10;;;;;;;-142.37;100.00;59669.53;5033547;28;20033;-66
2022/11/12 02:57:37;;;;;;;8.55;1.92;;;;;;;-142.37;100.00;59669.53;5035289;28;20025;-65
2022/11/12 03:00:11;;;;;;;8.57;1.55;;;;;;;-142.37;100.00;59669.53;5035165;28;20033;-65
2022/11/12 03:02:57;;;;;;;8.60;1.98;;;;;;;-142.37;100.00;59669.53;5033930;28;20561;-65
2022/11/12 03:05:23;;;;;;;13.88;2.47;;;;;;;-142.37;100.00;59669.53;5033653;28;20462;-65
2022/11/12 03:07:49;;;;;;;8.73;2.55;;;;;;;-142.37;100.00;59669.53;5034846;28;20104;-63
2022/11/12 03:10:14;;;;;;;9.50;1.83;;;;;;;-142.37;100.00;59669.53;5034079;28;20033;-66
2022/11/12 03:12:40;;;;;;;13.75;2.70;;;;;;;-142.37;100.00;59669.53;5035092;28;20044;-65
2022/11/12 03:15:06;;;;;;;12.90;2.60;;;;;;;-142.37;100.00;59669.53;5034583;28;20362;-64
2022/11/12 03:17:33;;;;;;;11.23;2.67;;;;;;;-142.37;100.00;59669.53;5034555;28;20033;-65
2022/11/12 03:19:59;;;;;;;10.65;2.60;;;;;;;-142.37;100.00;59669.53;5034410;28;20034;-63
2022/11/12 03:22:24;;;;;;;9.32;2.30;;;;;;;-142.37;100.00;59669.53;5034116;28;20032;-64
2022/11/12 03:24:50;;;;;;;12.95;3.55;;;;;;;-142.37;100.00;59669.53;5032360;28;20084;-63
2022/11/12 03:27:16;;;;;;;12.27;2.47;;;;;;;-142.37;100.00;59669.53;5033925;28;20033;-64
2022/11/12 03:29:41;;;;;;;9.23;2.42;;;;;;;-142.37;100.00;59669.53;5034659;28;20037;-64
2022/11/12 03:32:07;;;;;;;9.00;2.03;;;;;;;-142.37;100.00;59669.53;5033995;28;20075;-64
2022/11/12 03:34:32;;;;;;;10.65;2.47;;;;;;;-142.37;100.00;59669.53;5033193;28;20175;-64
2022/11/12 03:36:58;;;;;;;14.93;3.22;;;;;;;-142.37;100.00;59669.53;5032870;28;20091;-64
2022/11/12 03:39:23;;;;;;;6.93;2.78;;;;;;;-142.37;100.00;59669.53;5034483;28;20413;-64
2022/11/12 03:41:49;;;;;;;16.15;3.70;;;;;;;-142.37;100.00;59669.53;5034602;28;20035;-64
2022/11/12 03:44:14;;;;;;;16.38;2.42;;;;;;;-142.37;100.00;59669.53;5033170;28;20025;-65
2022/11/12 03:46:40;;;;;;;14.32;3.03;;;;;;;-142.37;100.00;59669.53;5034562;28;20038;-64
2022/11/12 03:49:05;;;;;;;10.65;2.85;;;;;;;-142.37;100.00;59669.53;5034189;28;20064;-64
2022/11/12 03:51:32;;;;;;;10.32;2.42;;;;;;;-142.37;100.00;59669.53;5034033;28;20034;-64
2022/11/12 03:53:57;;;;;;;9.57;3.40;;;;;;;-142.37;100.00;59669.53;5034595;28;20052;-64
2022/11/12 03:56:23;;;;;;;12.75;3.28;;;;;;;-142.37;100.00;59669.53;5032796;28;20466;-65
2022/11/12 03:58:48;;;;;;;10.70;2.55;;;;;;;-142.37;100.00;59669.53;5034285;28;20025;-64
2022/11/12 04:01:14;;;;;;;9.27;2.25;;;;;;;-142.37;100.00;59669.53;5034272;28;20033;-65
2022/11/12 04:03:39;;;;;;;9.57;2.45;;;;;;;-142.37;100.00;59669.53;5034263;28;20037;-64
2022/11/12 04:08:49;;;;;;;8.90;2.60;;;;;;;-142.37;100.00;59669.53;5033810;28;20064;-64
2022/11/12 04:11:15;;;;;;;10.65;3.45;;;;;;;-142.37;100.00;59669.53;5033732;28;20096;-64
2022/11/12 04:13:46;;;;;;;11.10;2.50;;;;;;;-142.37;100.00;59669.53;5032309;28;20044;-65
2022/11/12 04:21:50;;;;;;;9.75;3.78;;;;;;;-142.37;100.00;59669.53;5033963;28;20043;-66
2022/11/12 04:27:04;;;;;;;10.48;2.65;;;;;;;-142.37;100.00;59669.53;5033321;28;20052;-64
2022/11/12 04:32:14;;;;;;;6.95;1.88;;;;;;;-142.37;100.00;59669.53;5033735;28;20040;-66
2022/11/12 04:34:40;;;;;;;10.15;2.15;;;;;;;-142.37;100.00;59669.53;5033335;28;20045;-67
2022/11/12 04:37:06;;;;;;;9.98;2.28;;;;;;;-142.37;100.00;59669.53;5031771;28;20033;-66
2022/11/12 04:39:32;;;;;;;11.55;2.38;;;;;;;-142.37;100.00;59669.53;5031913;28;20033;-65
2022/11/12 04:45:02;;;;;;;9.30;2.55;;;;;;;-142.37;100.00;59669.53;5032978;28;20047;-67
2022/11/12 04:47:39;;;;;;;13.13;2.90;;;;;;;-142.37;100.00;59669.53;5033193;28;20116;-64
2022/11/12 04:50:15;;;;;;;11.73;2.38;;;;;;;-142.37;100.00;59669.53;5033375;28;20034;-67
2022/11/12 04:52:40;;;;;;;10.68;3.22;;;;;;;-142.37;100.00;59669.53;5033039;28;20516;-64
2022/11/12 04:55:07;;;;;;;11.25;2.03;;;;;;;-142.37;100.00;59669.53;5032886;28;20025;-65
2022/11/12 04:57:32;;;;;;;10.95;2.63;;;;;;;-142.37;100.00;59669.53;5031755;28;20026;-65
2022/11/12 04:59:58;;;;;;;10.52;2.28;;;;;;;-142.37;100.00;59669.53;5032798;28;20040;-65
2022/11/12 05:02:23;;;;;;;12.75;3.45;;;;;;;-142.37;100.00;59669.53;5031318;28;20030;-65
2022/11/12 05:04:49;;;;;;;12.25;3.05;;;;;;;-142.37;100.00;59669.53;5033041;28;20035;-65
2022/11/12 05:07:15;;;;;;;11.90;3.08;;;;;;;-142.37;100.00;59669.53;5031593;28;20036;-65
2022/11/12 05:09:41;;;;;;;12.25;2.28;;;;;;;-142.37;100.00;59669.53;5033116;28;20029;-65
2022/11/12 05:12:07;;;;;;;10.55;2.10;;;;;;;-142.37;100.00;59669.53;5032703;28;20462;-65
2022/11/12 05:14:33;;;;;;;12.13;2.15;;;;;;;-142.37;100.00;59669.53;5032548;28;20383;-64
2022/11/12 05:16:59;;;;;;;9.65;2.72;;;;;;;-142.37;100.00;59669.53;5032391;28;20032;-65
2022/11/12 05:19:24;;;;;;;16.10;3.08;;;;;;;-142.37;100.00;59669.53;5032795;28;20034;-66
2022/11/12 05:22:05;;;;;;;13.27;2.80;;;;;;;-142.37;100.00;59669.53;5032723;28;20033;-66
2022/11/12 05:24:39;;;;;;;11.25;2.35;;;;;;;-142.37;100.00;59669.53;5032372;28;20045;-66
2022/11/12 05:27:18;;;;;;;17.90;3.00;;;;;;;-142.37;100.00;59669.53;5032653;28;20041;-65
2022/11/12 05:29:43;;;;;;;13.32;3.15;;;;;;;-142.37;100.00;59669.53;5032823;28;20029;-64
2022/11/12 05:32:14;;;;;;;12.77;2.90;;;;;;;-142.37;100.00;59669.53;5032581;28;20045;-64
2022/11/12 05:34:40;;;;;;;15.30;3.10;;;;;;;-142.37;100.00;59669.53;5031029;28;20405;-67
2022/11/12 05:37:08;;;;;;;13.15;3.10;;;;;;;-142.37;100.00;59669.53;5032601;28;20040;-65
2022/11/12 05:39:34;;;;;;;12.23;2.42;;;;;;;-142.37;100.00;59669.53;5032464;28;20033;-66
2022/11/12 05:41:59;;;;;;;15.27;4.07;;;;;;;-142.37;100.00;59669.53;5032130;28;20088;-67
2022/11/12 05:44:25;;;;;;;13.07;2.83;;;;;;;-142.37;100.00;59669.53;5032456;28;20040;-64
2022/11/12 05:46:51;;;;;;;13.27;2.78;;;;;;;-142.37;100.00;59669.53;5032499;28;20044;-65
2022/11/12 05:49:16;;;;;;;17.60;3.55;;;;;;;-142.37;100.00;59669.53;5032289;28;20037;-65
2022/11/12 05:51:43;;;;;;;11.70;2.92;;;;;;;-142.37;100.00;59669.53;5032211;28;20041;-66
2022/11/12 05:54:09;;;;;;;14.90;3.47;;;;;;;-142.37;100.00;59669.53;5030379;28;20490;-64
2022/11/12 05:56:35;;;;;;;17.10;3.83;;;;;;;-142.37;100.00;59669.53;5032238;28;20083;-65
2022/11/12 05:59:02;;;;;;;14.98;3.38;;;;;;;-142.37;100.00;59669.53;5031876;28;20467;-65
2022/11/12 06:01:28;;;;;;;11.80;2.92;;;;;;;-142.37;100.00;59669.53;5031947;28;20390;-65
2022/11/12 06:03:55;;;;;;;18.95;3.92;;;;;;;-142.37;100.00;59669.53;5031996;28;20029;-65
2022/11/12 06:06:21;;;;;;;17.67;3.38;;;;;;;-142.37;100.00;59669.53;5032075;28;20047;-65
2022/11/12 06:08:46;;;;;;;20.17;4.65;;;;;;;-142.37;100.00;59669.53;5032066;28;20501;-65
2022/11/12 06:11:12;;;;;;;18.42;3.65;;;;;;;-142.37;100.00;59669.53;5030754;28;20034;-64
2022/11/12 06:13:38;;;;;;;21.75;3.67;;;;;;;-142.37;100.00;59669.53;5032254;28;20029;-66
2022/11/12 06:16:04;;;;;;;14.68;3.08;;;;;;;-142.37;100.00;59669.53;5030403;28;20064;-66
2022/11/12 06:18:30;;;;;;;14.40;3.60;;;;;;;-142.37;100.00;59669.53;5032312;28;20033;-65
2022/11/12 06:21:19;;;;;;;18.15;4.63;;;;;;;-142.37;100.00;59669.53;5030698;28;20105;-64
2022/11/12 06:23:45;;;;;;;15.27;3.88;;;;;;;-142.37;100.00;59669.53;5031382;28;20049;-65
2022/11/12 06:26:11;;;;;;;18.98;3.38;;;;;;;-142.37;100.00;59669.53;5030579;28;20037;-66
2022/11/12 06:28:37;;;;;;;20.88;4.00;;;;;;;-142.37;100.00;59669.53;5030508;28;20041;-64
2022/11/12 06:31:03;;;;;;;16.85;4.18;;;;;;;-142.37;100.00;59669.53;5030324;28;20105;-65
2022/11/12 06:33:28;;;;;;;15.40;3.20;;;;;;;-142.37;100.00;59669.53;5031839;28;20393;-67
2022/11/12 06:36:01;;;;;;;19.45;4.45;;;;;;;-142.37;100.00;59669.53;5031673;28;20033;-65
2022/11/12 06:38:35;;;;;;;18.10;3.15;;;;;;;-142.37;100.00;59669.53;5031630;28;20025;-65
2022/11/12 06:41:02;;;;;;;16.77;4.03;;;;;;;-142.37;100.00;59669.53;5031628;28;20029;-66
2022/11/12 06:43:29;;;;;;;14.90;3.30;;;;;;;-142.37;100.00;59669.53;5031630;28;20482;-65
2022/11/12 06:45:59;;;;;;;20.52;4.47;;;;;;;-142.37;100.00;59669.53;5030288;28;20033;-66
2022/11/12 06:48:25;;;;;;;18.75;4.75;;;;;;;-142.37;100.00;59669.53;5030249;28;20427;-65
2022/11/12 06:50:51;;;;;;;22.67;4.97;;;;;;;-142.37;100.00;59669.53;5029965;28;20470;-66
2022/11/12 06:53:16;;;;;;;24.08;5.65;;;;;;;-142.37;100.00;59669.53;5031043;28;20036;-65
2022/11/12 06:55:42;;;;;;;22.05;4.35;;;;;;;-142.37;100.00;59669.53;5031817;28;20072;-66
2022/11/12 06:58:07;;;;;;;19.00;4.07;;;;;;;-142.37;100.00;59669.53;5031448;28;20120;-66
2022/11/12 07:00:33;;;;;;;18.02;3.88;;;;;;;-142.37;100.00;59669.53;5031489;28;20026;-67
2022/11/12 07:02:59;;;;;;;23.27;3.70;;;;;;;-142.37;100.00;59669.53;5031450;28;20367;-66
2022/11/12 07:05:24;;;;;;;21.85;5.30;;;;;;;-142.37;100.00;59669.53;5031963;28;20041;-66
2022/11/12 07:07:50;;;;;;;20.30;3.95;;;;;;;-142.37;100.00;59669.53;5033583;28;20025;-65
2022/11/12 07:10:16;;;;;;;15.93;4.25;;;;;;;-142.37;100.00;59669.53;5034921;28;20115;-67
2022/11/12 07:12:41;;;;;;;20.17;4.72;;;;;;;-142.37;100.00;59669.53;5035240;28;20076;-65
2022/11/12 07:15:07;;;;;;;18.42;4.10;;;;;;;-142.37;100.00;59669.53;5033232;28;20037;-66
2022/11/12 07:17:33;;;;;;;20.67;5.00;;;;;;;-142.37;100.00;59669.53;5034720;28;20490;-65
2022/11/12 07:19:59;;;;;;;16.45;4.15;;;;;;;-142.37;100.00;59669.53;5033414;28;20026;-65
2022/11/12 07:22:25;;;;;;;21.00;5.25;;;;;;;-142.37;100.00;59669.53;5034831;28;20029;-66
2022/11/12 07:24:50;;;;;;;19.98;4.07;;;;;;;-142.37;100.00;59669.53;5034608;28;20486;-66
2022/11/12 07:27:16;;;;;;;19.20;3.85;;;;;;;-142.37;100.00;59669.53;5034167;28;20040;-66
2022/11/12 07:29:42;;;;;;;19.23;4.40;;;;;;;-142.37;100.00;59669.53;5034115;28;20032;-65
2022/11/12 07:32:07;;;;;;;25.38;3.45;;;;;;;-142.37;100.00;59669.53;5034322;28;20117;-66
2022/11/12 07:34:33;;;;;;;21.13;4.22;;;;;;;-142.37;100.00;59669.53;5034725;28;20052;-66
2022/11/12 07:36:58;;;;;;;21.65;3.45;;;;;;;-142.37;100.00;59669.53;5034056;28;20037;-66
2022/11/12 07:39:24;;;;;;;17.42;4.20;;;;;;;-142.37;100.00;59669.53;5034228;28;20030;-66
2022/11/12 07:41:50;;;;;;;22.10;4.55;;;;;;;-142.37;100.00;59669.53;5034049;28;20028;-65
2022/11/12 07:44:15;;;;;;;15.23;3.00;;;;;;;-142.37;100.00;59669.53;5033106;28;20037;-66
2022/11/12 07:46:41;;;;;;;19.08;4.40;;;;;;;-142.37;100.00;59669.53;5033071;28;20030;-65
2022/11/12 07:49:07;;;;;;;22.65;4.90;;;;;;;-142.37;100.00;59669.53;5034021;28;20112;-65
2022/11/12 07:51:32;;;;;;;19.88;4.47;;;;;;;-142.37;100.00;59669.53;5034154;28;20029;-66
2022/11/12 07:54:00;;;;;;;22.40;4.45;;;;;;;-142.37;100.00;59669.53;5032316;28;20052;-66
2022/11/12 07:56:27;;;;;;;17.67;3.95;;;;;;;-142.37;100.00;59669.53;5033896;28;20060;-64
2022/11/12 07:58:52;;;;;;;25.88;4.72;;;;;;;-142.37;100.00;59669.53;5034032;28;20032;-65
2022/11/12 08:01:33;;;;;;;21.90;5.00;;;;;;;-142.37;100.00;59669.53;5032156;28;20468;-66
2022/11/12 08:04:00;;;;;;;19.95;3.95;;;;;;;-142.37;100.00;59669.53;5032623;28;20022;-65
2022/11/12 08:06:27;;;;;;;20.35;4.90;;;;;;;-142.37;100.00;59669.53;5034161;28;20029;-65
2022/11/12 08:08:54;;;;;;;19.20;3.60;;;;;;;-142.37;100.00;59669.53;5033869;28;20040;-66
2022/11/12 08:11:21;;;;;;;18.80;4.03;;;;;;;-142.37;100.00;59669.53;5065135;28;20037;-65
2022/11/12 08:13:47;;;;;;;18.85;4.57;;;;;;;-142.37;100.00;59669.53;5033718;28;20091;-67
2022/11/12 08:16:12;;;;;;;21.50;4.88;;;;;;;-142.37;100.00;59669.53;5033583;28;20033;-66
2022/11/12 08:18:38;;;;;;;18.08;4.10;;;;;;;-142.37;100.00;59669.53;5033663;28;20359;-66
2022/11/12 08:21:06;;;;;;;14.50;3.70;;;;;;;-142.37;100.00;59669.53;5033383;28;20037;-68
2022/11/12 08:23:32;;;;;;;16.88;4.32;;;;;;;-142.37;100.00;59669.53;5033261;28;20057;-67
2022/11/12 08:26:03;;;;;;;17.40;3.58;;;;;;;-142.37;100.00;59669.53;5032186;28;20530;-65
2022/11/12 08:28:33;;;;;;;19.42;4.18;;;;;;;-142.37;100.00;59669.53;5032731;28;20034;-67
2022/11/12 08:31:14;;;;;;;20.80;4.30;;;;;;;-142.37;100.00;59669.53;5032933;28;20037;-66
2022/11/12 08:33:40;;;;;;;21.45;4.50;;;;;;;-142.37;100.00;59669.53;5032848;28;20025;-67
2022/11/12 08:36:08;;;;;;;22.90;3.90;;;;;;;-142.37;100.00;59669.53;5033145;28;20025;-66
2022/11/12 08:38:35;;;;;;;19.20;4.28;;;;;;;-142.37;100.00;59669.53;5033077;28;20048;-66
2022/11/12 08:41:02;;;;;;;16.92;4.38;;;;;;;-142.37;100.00;59669.53;5033090;28;20044;-65
2022/11/12 08:43:28;;;;;;;20.63;4.88;;;;;;;-142.37;100.00;59669.53;5033116;28;20036;-65
2022/11/12 08:45:57;;;;;;;17.50;4.10;;;;;;;-142.37;100.00;59669.53;5031545;28;20059;-66
2022/11/12 08:48:23;;;;;;;16.60;3.13;;;;;;;-142.37;100.00;59669.53;5031153;28;20029;-67
2022/11/12 08:50:48;;;;;;;22.13;3.72;;;;;;;-142.37;100.00;59669.53;5033047;28;20043;-66
2022/11/12 08:53:14;;;;;;;21.08;3.50;;;;;;;-142.37;100.00;59669.53;5031072;28;20026;-67
2022/11/12 08:55:40;;;;;;;18.88;4.60;;;;;;;-142.37;100.00;59669.53;5032319;28;20029;-64
2022/11/12 08:58:06;;;;;;;12.30;3.15;;;;;;;-142.37;100.00;59669.53;5031488;28;20420;-66
2022/11/12 09:00:42;;;;;;;21.90;4.75;;;;;;;-142.37;100.00;59669.53;5032849;28;20033;-67
2022/11/12 09:03:14;;;;;;;18.13;4.80;;;;;;;-142.37;100.00;59669.53;5032241;28;20086;-65
2022/11/12 09:05:39;;;;;;;18.63;3.83;;;;;;;-142.37;100.00;59669.53;5032278;28;20030;-67
2022/11/12 09:08:09;;;;;;;19.67;4.65;;;;;;;-142.37;100.00;59669.53;5032557;28;20029;-66
2022/11/12 09:10:36;;;;;;;18.38;3.30;;;;;;;-142.37;100.00;59669.53;5031788;28;20083;-66
2022/11/12 09:13:02;;;;;;;17.33;3.03;;;;;;;-142.37;100.00;59669.53;5032437;28;20030;-66
2022/11/12 09:15:28;;;;;;;17.67;3.63;;;;;;;-142.37;100.00;59669.53;5031779;28;20440;-67
2022/11/12 09:18:01;;;;;;;16.50;3.38;;;;;;;-142.37;100.00;59669.53;5032789;28;20079;-65
2022/11/12 09:20:28;;;;;;;18.58;3.78;;;;;;;-142.37;100.00;59669.53;5032259;28;20029;-66
2022/11/12 09:22:59;;;;;;;19.70;4.68;;;;;;;-142.37;100.00;59669.53;5032081;28;20068;-65
2022/11/12 09:25:24;;;;;;;15.77;3.47;;;;;;;-142.37;100.00;59669.53;5031744;28;20065;-66
2022/11/12 09:27:50;;;;;;;17.83;3.45;;;;;;;-142.37;100.00;59669.53;5031964;28;20034;-64
2022/11/12 09:30:15;;;;;;;20.20;3.88;;;;;;;-142.37;100.00;59669.53;5031798;28;20057;-67
2022/11/12 09:32:41;;;;;;;14.70;2.97;;;;;;;-142.37;100.00;59669.53;5030991;28;20478;-67
2022/11/12 09:35:07;;;;;;;18.65;4.28;;;;;;;-142.37;100.00;59669.53;5031471;28;20037;-66
2022/11/12 09:37:32;;;;;;;19.33;4.53;;;;;;;-142.37;100.00;59669.53;5031765;28;20029;-66
2022/11/12 09:39:58;;;;;;;13.45;3.78;;;;;;;-142.37;100.00;59669.53;5031879;28;20029;-66
2022/11/12 09:42:24;;;;;;;13.27;3.70;;;;;;;-142.37;100.00;59669.53;5031901;28;20409;-65
2022/11/12 09:45:04;;;;;;;15.50;4.35;;;;;;;-142.37;100.00;59669.53;5031808;28;20084;-66
2022/11/12 09:47:39;;;;;;;15.60;3.20;;;;;;;-142.37;100.00;59669.53;5030541;28;20030;-66
2022/11/12 09:50:11;;;;;;;16.95;4.30;;;;;;;-142.37;100.00;59669.53;5031570;28;20025;-65
2022/11/12 09:52:42;;;;;;;11.98;3.55;;;;;;;-142.37;100.00;59669.53;5031871;28;20421;-66
2022/11/12 09:55:24;;;;;;;15.77;3.50;;;;;;;-142.37;100.00;59669.53;5031201;28;20029;-65
2022/11/12 09:57:50;;;;;;;13.73;3.42;;;;;;;-142.37;100.00;59669.53;5031489;28;20037;-64
2022/11/12 10:00:18;;;;;;;17.60;3.63;;;;;;;-142.37;100.00;59669.53;5031799;28;20037;-65
2022/11/12 10:02:58;;;;;;;14.30;3.55;;;;;;;-142.37;100.00;59669.53;5030713;28;20025;-66
2022/11/12 10:05:32;;;;;;;15.38;4.25;;;;;;;-142.37;100.00;59669.53;5031589;28;20549;-66
2022/11/12 10:08:26;;;;;;;19.77;5.07;;;;;;;-142.37;100.00;59669.53;5031584;28;20037;-65
2022/11/12 10:11:16;;;;;;;14.13;3.42;;;;;;;-142.37;100.00;59669.53;5030551;28;20083;-65
2022/11/12 10:14:12;;;;;;;17.52;3.35;;;;;;;-142.37;100.00;59669.53;5031374;28;20110;-66
2022/11/12 10:16:46;;;;;;;14.13;3.65;;;;;;;-142.37;100.00;59669.53;5031525;28;20034;-64
2022/11/12 10:19:32;;;;;;;12.05;3.10;;;;;;;-142.37;100.00;59669.53;5031571;28;20037;-65
2022/11/12 10:22:16;;;;;;;13.18;3.20;;;;;;;-142.37;100.00;59669.53;5030290;28;20033;-65
2022/11/12 10:24:43;;;;;;;11.65;3.67;;;;;;;-142.37;100.00;59669.53;5029914;28;20057;-67
2022/11/12 10:27:17;;;;;;;11.27;3.50;;;;;;;-142.37;100.00;59669.53;5031493;28;20052;-65
2022/11/12 10:29:59;;;;;;;13.77;3.72;;;;;;;-142.37;100.00;59669.53;5031714;28;20029;-65
2022/11/12 10:32:24;;;;;;;12.02;3.58;;;;;;;-142.37;100.00;59669.53;5031062;28;20037;-65
2022/11/12 10:34:50;;;;;;;14.18;3.53;;;;;;;-142.37;100.00;59669.53;5030965;28;20033;-65
2022/11/12 10:37:32;;;;;;;11.85;3.47;;;;;;;-142.37;100.00;59669.53;5031157;28;20041;-63
2022/11/12 10:39:58;;;;;;;13.93;3.58;;;;;;;-142.37;100.00;59669.53;5030731;28;20026;-64
2022/11/12 10:42:23;;;;;;;16.10;3.40;;;;;;;-142.37;100.00;59669.53;5033798;28;20107;-66
2022/11/12 10:44:50;;;;;;;16.67;3.42;;;;;;;-142.37;100.00;59669.53;5033821;28;20087;-64
2022/11/12 10:47:40;;;;;;;12.25;3.45;;;;;;;-142.37;100.00;59669.53;5033536;28;20551;-64
2022/11/12 10:50:20;;;;;;;12.88;3.53;;;;;;;-142.37;100.00;59669.53;5033223;28;20033;-64
2022/11/12 10:53:09;;;;;;;11.73;3.05;;;;;;;-142.37;100.00;59669.53;5034954;28;20060;-64
2022/11/12 10:55:37;;;;;;;12.20;4.25;;;;;;;-142.37;100.00;59669.53;5034711;28;20040;-64
2022/11/12 10:58:15;;;;;;;12.73;3.35;;;;;;;-142.37;100.00;59669.53;5032961;28;20025;-65
2022/11/12 11:00:59;;;;;;;14.88;3.53;;;;;;;-142.37;100.00;59669.53;5034212;28;20033;-64
2022/11/12 11:03:45;;;;;;;12.25;3.00;;;;;;;-142.37;100.00;59669.53;5034002;28;20479;-63
2022/11/12 11:06:14;;;;;;;13.38;2.78;;;;;;;-142.37;100.00;59669.53;5034529;28;20029;-63
2022/11/12 11:08:49;;;;;;;10.88;3.45;;;;;;;-142.37;100.00;59669.53;5034236;28;20119;-64
2022/11/12 11:11:24;;;;;;;20.95;3.65;;;;;;;-142.37;100.00;59669.53;5032811;28;20044;-65
2022/11/12 11:13:52;;;;;;;17.23;4.15;;;;;;;-142.37;100.00;59669.53;5032494;28;20343;-62
2022/11/12 11:16:26;;;;;;;14.68;3.40;;;;;;;-142.37;100.00;59669.53;5033003;28;20393;-64
2022/11/12 11:18:57;;;;;;;16.35;4.22;;;;;;;-142.37;100.00;59669.53;5034032;28;20548;-65
2022/11/12 11:21:44;;;;;;;18.10;4.18;;;;;;;-142.37;100.00;59669.53;5034245;28;20034;-64
2022/11/12 11:24:38;;;;;;;15.75;2.88;;;;;;;-142.37;100.00;59669.53;5032721;28;20446;-64
2022/11/12 11:27:17;;;;;;;16.97;4.43;;;;;;;-142.37;100.00;59669.53;5034032;28;20033;-64
2022/11/12 11:29:58;;;;;;;17.80;3.28;;;;;;;-142.37;100.00;59669.53;5033884;28;20262;-64
2022/11/12 11:32:48;;;;;;;13.82;3.10;;;;;;;-142.37;100.00;59669.53;5033846;28;20530;-66